createdAt,value
2022-09-06T00:00:18.562Z,16.90
2022-09-06T00:02:46.126Z,16.90
2022-09-06T00:05:13.258Z,16.90
2022-09-06T00:07:40.377Z,16.90
2022-09-06T00:10:08.569Z,16.90
2022-09-06T00:12:36.086Z,16.70
2022-09-06T00:15:04.541Z,16.80
2022-09-06T00:17:33.109Z,16.70
2022-09-06T00:20:00.067Z,16.70
2022-09-06T00:22:26.993Z,16.60
2022-09-06T00:24:53.994Z,16.70
2022-09-06T00:27:21.405Z,16.70
2022-09-06T00:29:48.370Z,16.70
2022-09-06T00:32:15.356Z,16.80
2022-09-06T00:34:42.248Z,16.70
2022-09-06T00:37:09.177Z,16.80
2022-09-06T00:39:36.267Z,16.60
2022-09-06T00:42:07.494Z,16.60
2022-09-06T00:44:34.474Z,16.60
2022-09-06T00:47:01.805Z,16.50
2022-09-06T00:49:43.889Z,16.40
2022-09-06T00:52:13.845Z,16.50
2022-09-06T00:54:42.424Z,16.40
2022-09-06T00:57:10.181Z,16.40
2022-09-06T00:59:39.489Z,16.50
2022-09-06T01:02:07.199Z,16.30
2022-09-06T01:04:35.643Z,16.30
2022-09-06T01:07:24.339Z,16.40
2022-09-06T01:09:54.208Z,16.30
2022-09-06T01:12:41.091Z,16.40
2022-09-06T01:15:15.634Z,16.20
2022-09-06T01:18:00.437Z,16.30
2022-09-06T01:20:52.285Z,16.40
2022-09-06T01:23:41.222Z,16.40
2022-09-06T01:26:32.621Z,16.20
2022-09-06T01:28:59.817Z,16.10
2022-09-06T01:31:44.591Z,16.20
2022-09-06T01:34:31.610Z,16.30
2022-09-06T01:37:11.076Z,16.10
2022-09-06T01:39:39.995Z,16.20
2022-09-06T01:42:18.930Z,16.10
2022-09-06T01:45:01.897Z,16.10
2022-09-06T01:47:40.568Z,16.20
2022-09-06T01:50:31.789Z,16.30
2022-09-06T01:53:34.488Z,16.40
2022-09-06T01:56:16.186Z,16.50
2022-09-06T01:59:01.694Z,16.50
2022-09-06T02:01:36.367Z,16.70
2022-09-06T02:04:21.681Z,16.70
2022-09-06T02:06:59.001Z,16.80
2022-09-06T02:09:29.004Z,16.80
2022-09-06T02:12:01.273Z,17.10
2022-09-06T02:14:43.233Z,17.10
2022-09-06T02:17:14.489Z,17.20
2022-09-06T02:19:56.061Z,17.30
2022-09-06T02:22:27.404Z,17.40
2022-09-06T02:24:57.034Z,17.40
2022-09-06T02:27:24.195Z,17.60
2022-09-06T02:29:51.273Z,17.70
2022-09-06T02:32:26.379Z,17.80
2022-09-06T02:34:55.685Z,17.90
2022-09-06T02:37:26.192Z,18.00
2022-09-06T02:39:56.077Z,18.20
2022-09-06T02:42:24.138Z,18.20
2022-09-06T02:44:51.070Z,18.10
2022-09-06T02:47:18.539Z,17.90
2022-09-06T02:49:45.754Z,17.50
2022-09-06T02:52:12.722Z,17.10
2022-09-06T02:54:39.777Z,16.90
2022-09-06T02:57:06.690Z,16.80
2022-09-06T02:59:33.670Z,16.70
2022-09-06T03:02:00.646Z,16.70
2022-09-06T03:04:27.607Z,16.70
2022-09-06T03:06:54.556Z,16.70
2022-09-06T03:09:21.472Z,16.70
2022-09-06T03:11:48.357Z,16.80
2022-09-06T03:14:17.024Z,16.70
2022-09-06T03:16:44.018Z,16.60
2022-09-06T03:19:11.189Z,16.60
2022-09-06T03:21:38.258Z,16.60
2022-09-06T03:24:05.446Z,16.50
2022-09-06T03:26:32.435Z,16.70
2022-09-06T03:28:59.377Z,16.70
2022-09-06T03:31:26.336Z,16.60
2022-09-06T03:33:53.372Z,16.60
2022-09-06T03:36:20.318Z,16.70
2022-09-06T03:38:47.297Z,16.70
2022-09-06T03:41:14.173Z,16.80
2022-09-06T03:43:41.112Z,16.90
2022-09-06T03:46:08.100Z,16.90
2022-09-06T03:48:35.232Z,16.80
2022-09-06T03:51:02.157Z,16.70
2022-09-06T03:53:29.652Z,16.80
2022-09-06T03:55:58.130Z,17.00
2022-09-06T03:58:29.765Z,16.90
2022-09-06T04:01:01.261Z,16.70
2022-09-06T04:03:28.464Z,16.70
2022-09-06T04:05:55.413Z,16.60
2022-09-06T04:08:22.389Z,16.50
2022-09-06T04:10:51.400Z,16.40
2022-09-06T04:13:18.364Z,16.40
2022-09-06T04:15:48.802Z,16.30
2022-09-06T04:18:16.552Z,16.30
2022-09-06T04:20:45.374Z,16.20
2022-09-06T04:23:12.309Z,16.10
2022-09-06T04:25:39.592Z,16.10
2022-09-06T04:28:06.805Z,16.20
2022-09-06T04:30:33.705Z,16.00
2022-09-06T04:33:00.666Z,15.90
2022-09-06T04:35:27.560Z,15.90
2022-09-06T04:37:54.838Z,15.90
2022-09-06T04:40:21.780Z,15.80
2022-09-06T04:42:48.911Z,15.90
2022-09-06T04:45:15.856Z,15.80
2022-09-06T04:47:42.789Z,15.80
2022-09-06T04:50:10.028Z,15.80
2022-09-06T04:52:38.248Z,15.80
2022-09-06T04:55:05.764Z,15.80
2022-09-06T04:57:32.870Z,15.90
2022-09-06T04:59:59.769Z,15.70
2022-09-06T05:02:26.805Z,15.60
2022-09-06T05:04:54.842Z,15.70
2022-09-06T05:07:21.832Z,15.80
2022-09-06T05:09:48.764Z,15.70
2022-09-06T05:12:15.837Z,15.80
2022-09-06T05:14:42.779Z,15.90
2022-09-06T05:17:09.701Z,15.70
2022-09-06T05:19:36.657Z,15.80
2022-09-06T05:22:03.630Z,15.80
2022-09-06T05:24:30.541Z,15.70
2022-09-06T05:26:57.574Z,15.70
2022-09-06T05:29:27.592Z,16.00
2022-09-06T05:31:57.882Z,16.00
2022-09-06T05:34:24.916Z,15.90
2022-09-06T05:36:51.996Z,15.90
2022-09-06T05:39:21.215Z,15.90
2022-09-06T05:41:48.405Z,15.90
2022-09-06T05:44:15.364Z,16.10
2022-09-06T05:46:46.665Z,16.30
2022-09-06T05:49:14.094Z,16.40
2022-09-06T05:51:41.244Z,16.40
2022-09-06T05:54:11.189Z,16.50
2022-09-06T05:56:38.203Z,16.70
2022-09-06T05:59:05.998Z,16.80
2022-09-06T06:01:33.265Z,16.90
2022-09-06T06:04:03.002Z,17.00
2022-09-06T06:06:32.763Z,17.10
2022-09-06T06:09:00.225Z,17.20
2022-09-06T06:11:28.010Z,17.40
2022-09-06T06:13:55.425Z,17.50
2022-09-06T06:16:23.303Z,17.50
2022-09-06T06:18:52.431Z,17.60
2022-09-06T06:21:24.462Z,17.60
2022-09-06T06:23:54.204Z,17.60
2022-09-06T06:26:22.938Z,17.70
2022-09-06T06:28:50.281Z,17.80
2022-09-06T06:31:17.642Z,17.90
2022-09-06T06:33:44.715Z,18.10
2022-09-06T06:36:14.429Z,18.20
2022-09-06T06:38:43.397Z,18.30
2022-09-06T06:41:15.508Z,18.50
2022-09-06T06:43:42.545Z,18.50
2022-09-06T06:46:17.858Z,18.60
2022-09-06T06:48:46.145Z,18.80
2022-09-06T06:51:18.849Z,18.90
2022-09-06T06:53:49.755Z,18.90
2022-09-06T06:56:21.859Z,19.00
2022-09-06T06:58:52.307Z,18.90
2022-09-06T07:01:21.072Z,18.90
2022-09-06T07:03:48.932Z,19.00
2022-09-06T07:06:17.053Z,18.90
2022-09-06T07:08:44.588Z,19.10
2022-09-06T07:11:14.671Z,19.40
2022-09-06T07:13:42.165Z,19.40
2022-09-06T07:16:18.496Z,19.40
2022-09-06T07:18:45.984Z,19.50
2022-09-06T07:26:38.183Z,19.30
2022-09-06T07:29:06.540Z,19.40
2022-09-06T07:34:22.064Z,20.50
2022-09-06T07:36:51.894Z,21.00
2022-09-06T07:39:18.897Z,21.20
2022-09-06T07:41:45.833Z,21.70
2022-09-06T07:44:12.836Z,21.90
2022-09-06T07:46:39.904Z,21.90
2022-09-06T07:49:07.256Z,22.20
2022-09-06T07:51:34.227Z,22.40
2022-09-06T07:54:26.266Z,22.50
2022-09-06T07:56:48.386Z,22.50
2022-09-06T07:59:15.601Z,22.40
2022-09-06T08:01:43.153Z,22.50
2022-09-06T08:04:14.253Z,22.50
2022-09-06T08:09:31.197Z,23.30
2022-09-06T08:11:58.251Z,23.10
2022-09-06T08:14:25.171Z,23.10
2022-09-06T08:16:52.325Z,23.20
2022-09-06T08:19:19.228Z,22.70
2022-09-06T08:21:46.223Z,22.50
2022-09-06T08:24:13.360Z,22.40
2022-09-06T08:26:43.301Z,22.70
2022-09-06T08:29:11.080Z,22.90
2022-09-06T08:31:43.807Z,22.70
2022-09-06T08:34:14.326Z,22.60
2022-09-06T08:36:42.429Z,22.90
2022-09-06T08:39:10.370Z,22.80
2022-09-06T08:41:56.321Z,24.10
2022-09-06T08:47:15.724Z,27.10
2022-09-06T08:49:46.128Z,28.10
2022-09-06T08:52:36.010Z,28.00
2022-09-06T08:55:24.564Z,27.40
2022-09-06T08:58:06.363Z,28.00
2022-09-06T09:00:36.372Z,28.40
2022-09-06T09:03:18.112Z,29.60
2022-09-06T09:05:50.120Z,29.40
2022-09-06T09:08:33.490Z,30.40
2022-09-06T09:11:19.191Z,30.40
2022-09-06T09:13:59.322Z,30.50
2022-09-06T09:16:26.612Z,29.30
2022-09-06T09:18:57.155Z,28.60
2022-09-06T09:21:30.497Z,30.20
2022-09-06T09:24:03.148Z,31.00
2022-09-06T09:26:40.751Z,30.50
2022-09-06T09:29:12.666Z,30.90
2022-09-06T09:31:51.058Z,30.00
2022-09-06T09:34:37.001Z,30.50
2022-09-06T09:37:50.401Z,31.50
2022-09-06T09:40:26.137Z,31.10
2022-09-06T09:42:55.098Z,32.00
2022-09-06T09:45:30.890Z,33.50
2022-09-06T09:48:15.446Z,33.60
2022-09-06T09:50:42.356Z,33.00
2022-09-06T09:53:11.344Z,31.80
2022-09-06T09:55:39.802Z,31.30
2022-09-06T09:58:07.620Z,31.40
2022-09-06T10:00:34.486Z,31.80
2022-09-06T10:03:10.527Z,32.80
2022-09-06T10:05:37.624Z,34.20
2022-09-06T10:08:09.970Z,34.70
2022-09-06T10:10:40.715Z,35.00
2022-09-06T10:13:09.920Z,34.70
2022-09-06T10:15:42.171Z,34.70
2022-09-06T10:18:21.491Z,35.60
2022-09-06T10:20:52.587Z,34.30
2022-09-06T10:26:30.664Z,34.30
2022-09-06T10:29:09.699Z,32.70
2022-09-06T10:31:47.498Z,34.50
2022-09-06T10:34:20.414Z,35.50
2022-09-06T10:36:55.281Z,36.70
2022-09-06T10:39:40.517Z,36.00
2022-09-06T10:42:07.325Z,35.80
2022-09-06T10:45:03.457Z,35.80
2022-09-06T10:47:48.469Z,35.60
2022-09-06T10:50:16.072Z,35.30
2022-09-06T10:52:44.997Z,34.50
2022-09-06T10:55:14.265Z,34.10
2022-09-06T11:00:36.452Z,34.30
2022-09-06T11:05:58.618Z,34.30
2022-09-06T11:08:46.972Z,34.80
2022-09-06T11:11:23.509Z,35.30
2022-09-06T11:13:50.429Z,35.20
2022-09-06T11:16:20.585Z,36.50
2022-09-06T11:18:57.157Z,36.40
2022-09-06T11:21:38.916Z,36.80
2022-09-06T11:24:16.185Z,37.30
2022-09-06T11:26:58.915Z,37.20
2022-09-06T11:29:27.230Z,36.70
2022-09-06T11:34:51.691Z,36.60
2022-09-06T11:37:45.154Z,37.40
2022-09-06T11:40:29.803Z,36.70
2022-09-06T11:42:59.298Z,37.00
2022-09-06T11:45:41.772Z,37.20
2022-09-06T11:48:23.617Z,37.10
2022-09-06T11:50:53.278Z,36.50
2022-09-06T11:53:21.049Z,36.50
2022-09-06T11:55:49.105Z,37.20
2022-09-06T11:58:45.241Z,38.20
2022-09-06T12:01:12.094Z,38.10
2022-09-06T12:07:04.226Z,38.00
2022-09-06T12:09:32.950Z,38.40
2022-09-06T12:12:00.215Z,38.20
2022-09-06T12:14:30.527Z,38.00
2022-09-06T12:17:09.683Z,38.40
2022-09-06T12:19:44.779Z,38.60
2022-09-06T12:22:26.691Z,39.70
2022-09-06T12:24:59.708Z,39.90
2022-09-06T12:27:29.334Z,38.50
2022-09-06T12:30:01.833Z,39.90
2022-09-06T12:32:36.212Z,40.70
2022-09-06T12:38:03.057Z,40.70
2022-09-06T12:40:35.057Z,41.90
2022-09-06T12:43:03.170Z,41.50
2022-09-06T12:45:30.310Z,43.00
2022-09-06T12:48:23.788Z,42.80
2022-09-06T12:51:01.033Z,43.50
2022-09-06T12:53:27.899Z,43.50
2022-09-06T12:56:05.279Z,43.30
2022-09-06T12:58:32.854Z,41.60
2022-09-06T13:01:03.928Z,42.40
2022-09-06T13:03:36.902Z,43.60
2022-09-06T13:06:05.497Z,45.30
2022-09-06T13:08:38.413Z,44.80
2022-09-06T13:11:09.406Z,43.60
2022-09-06T13:13:36.282Z,42.50
2022-09-06T13:16:03.311Z,43.20
2022-09-06T13:18:37.920Z,45.00
2022-09-06T13:21:08.967Z,45.30
2022-09-06T13:23:47.580Z,44.90
2022-09-06T13:26:14.721Z,44.70
2022-09-06T13:28:41.760Z,44.30
2022-09-06T13:31:17.945Z,43.50
2022-09-06T13:33:46.394Z,43.30
2022-09-06T13:36:13.135Z,43.10
2022-09-06T13:38:43.500Z,42.40
2022-09-06T13:41:26.382Z,43.00
2022-09-06T13:43:59.330Z,43.10
2022-09-06T13:46:26.741Z,42.30
2022-09-06T13:48:53.986Z,41.40
2022-09-06T13:51:20.993Z,42.40
2022-09-06T13:53:47.921Z,43.30
2022-09-06T13:56:16.528Z,43.30
2022-09-06T13:58:43.742Z,42.80
2022-09-06T14:01:11.581Z,43.40
2022-09-06T14:03:40.751Z,44.30
2022-09-06T14:06:08.254Z,42.50
2022-09-06T14:09:02.862Z,43.50
2022-09-06T14:11:24.280Z,42.50
2022-09-06T14:13:51.077Z,41.40
2022-09-06T14:16:18.070Z,41.60
2022-09-06T14:18:45.249Z,43.00
2022-09-06T14:21:12.388Z,44.10
2022-09-06T14:23:39.654Z,45.10
2022-09-06T14:26:06.578Z,45.20
2022-09-06T14:28:36.355Z,45.70
2022-09-06T14:31:10.442Z,45.20
2022-09-06T14:33:37.715Z,43.60
2022-09-06T14:36:05.551Z,43.60
2022-09-06T14:38:35.000Z,45.60
2022-09-06T14:41:05.826Z,45.80
2022-09-06T14:43:33.395Z,44.10
2022-09-06T14:46:12.706Z,43.60
2022-09-06T14:48:42.438Z,44.00
2022-09-06T14:51:20.843Z,45.10
2022-09-06T14:53:49.805Z,45.00
2022-09-06T14:56:17.069Z,45.00
2022-09-06T14:58:44.121Z,44.60
2022-09-06T15:01:14.557Z,44.30
2022-09-06T15:03:43.763Z,45.70
2022-09-06T15:06:11.247Z,46.00
2022-09-06T15:08:38.688Z,46.30
2022-09-06T15:11:08.040Z,45.80
2022-09-06T15:13:37.094Z,44.70
2022-09-06T15:16:04.663Z,44.70
2022-09-06T15:18:31.797Z,44.00
2022-09-06T15:20:59.005Z,43.90
2022-09-06T15:23:27.466Z,44.90
2022-09-06T15:25:54.444Z,45.40
2022-09-06T15:28:21.492Z,45.00
2022-09-06T15:30:48.779Z,45.40
2022-09-06T15:33:15.801Z,42.50
2022-09-06T15:35:43.325Z,38.20
2022-09-06T15:38:11.418Z,36.10
2022-09-06T15:40:38.278Z,34.30
2022-09-06T15:43:05.540Z,33.30
2022-09-06T15:45:37.565Z,34.30
2022-09-06T15:48:04.485Z,35.30
2022-09-06T15:50:50.199Z,36.70
2022-09-06T15:53:18.421Z,37.30
2022-09-06T15:55:57.437Z,38.00
2022-09-06T15:58:27.654Z,37.20
2022-09-06T16:01:03.704Z,36.50
2022-09-06T16:03:30.924Z,36.80
2022-09-06T16:08:55.259Z,37.00
2022-09-06T16:11:22.137Z,38.00
2022-09-06T16:13:49.495Z,38.50
2022-09-06T16:16:17.073Z,37.70
2022-09-06T16:18:44.993Z,38.30
2022-09-06T16:21:13.577Z,38.20
2022-09-06T16:23:41.305Z,38.20
2022-09-06T16:26:09.092Z,38.90
2022-09-06T16:28:37.201Z,39.10
2022-09-06T16:31:05.191Z,39.70
2022-09-06T16:33:33.323Z,40.00
2022-09-06T16:36:00.865Z,38.20
2022-09-06T16:38:33.989Z,35.10
2022-09-06T16:41:21.204Z,32.60
2022-09-06T16:43:52.389Z,31.50
2022-09-06T16:46:20.472Z,30.60
2022-09-06T16:48:54.924Z,30.10
2022-09-06T16:51:22.835Z,29.90
2022-09-06T16:53:49.676Z,29.60
2022-09-06T16:56:18.197Z,29.40
2022-09-06T16:58:49.161Z,29.10
2022-09-06T17:01:16.445Z,28.80
2022-09-06T17:03:43.541Z,28.60
2022-09-06T17:06:10.393Z,28.40
2022-09-06T17:08:37.278Z,28.30
2022-09-06T17:11:09.459Z,28.10
2022-09-06T17:13:36.665Z,28.10
2022-09-06T17:16:22.667Z,28.10
2022-09-06T17:18:50.037Z,28.00
2022-09-06T17:21:16.854Z,27.80
2022-09-06T17:23:43.741Z,27.70
2022-09-06T17:26:10.852Z,27.40
2022-09-06T17:28:38.301Z,27.40
2022-09-06T17:31:05.908Z,27.10
2022-09-06T17:33:33.435Z,27.00
2022-09-06T17:36:09.609Z,26.90
2022-09-06T17:38:36.554Z,26.70
2022-09-06T17:41:03.458Z,26.50
2022-09-06T17:43:30.401Z,26.20
2022-09-06T17:45:57.330Z,25.90
2022-09-06T17:48:25.218Z,25.70
2022-09-06T17:50:53.716Z,25.70
2022-09-06T17:53:20.634Z,25.40
2022-09-06T17:55:47.534Z,25.30
2022-09-06T17:58:14.417Z,25.30
2022-09-06T18:00:41.361Z,25.30
2022-09-06T18:03:08.306Z,25.10
2022-09-06T18:05:36.997Z,24.90
2022-09-06T18:08:03.890Z,24.80
2022-09-06T18:10:33.428Z,24.50
2022-09-06T18:13:00.420Z,24.20
2022-09-06T18:15:27.382Z,24.30
2022-09-06T18:17:54.264Z,24.10
2022-09-06T18:20:21.069Z,23.80
2022-09-06T18:22:47.901Z,23.50
2022-09-06T18:25:14.730Z,23.50
2022-09-06T18:27:41.691Z,23.30
2022-09-06T18:30:12.842Z,23.20
2022-09-06T18:32:41.949Z,23.10
2022-09-06T18:35:08.909Z,22.90
2022-09-06T18:37:36.659Z,22.80
2022-09-06T18:40:04.398Z,22.70
2022-09-06T18:42:32.063Z,22.50
2022-09-06T18:44:59.014Z,22.40
2022-09-06T18:47:25.876Z,22.30
2022-09-06T18:49:52.706Z,22.30
2022-09-06T18:52:20.726Z,22.10
2022-09-06T18:54:49.003Z,22.00
2022-09-06T18:57:17.217Z,21.70
2022-09-06T18:59:44.547Z,21.60
2022-09-06T19:02:11.620Z,21.60
2022-09-06T19:04:39.652Z,21.50
2022-09-06T19:07:06.588Z,21.40
2022-09-06T19:09:33.668Z,21.40
2022-09-06T19:12:00.604Z,21.30
2022-09-06T19:14:27.506Z,21.30
2022-09-06T19:16:54.369Z,21.20
2022-09-06T19:19:21.916Z,21.20
2022-09-06T19:21:48.764Z,21.30
2022-09-06T19:24:16.033Z,21.40
2022-09-06T19:26:43.947Z,21.30
2022-09-06T19:29:17.676Z,21.30
2022-09-06T19:31:45.168Z,21.20
2022-09-06T19:34:13.551Z,21.00
2022-09-06T19:36:41.119Z,20.80
2022-09-06T19:39:09.655Z,20.80
2022-09-06T19:41:38.037Z,20.70
2022-09-06T19:44:09.278Z,20.90
2022-09-06T19:46:36.465Z,20.80
2022-09-06T19:49:03.433Z,20.90
2022-09-06T19:51:30.293Z,20.80
2022-09-06T19:53:58.091Z,20.70
2022-09-06T19:56:26.356Z,20.50
2022-09-06T19:58:55.235Z,20.30
2022-09-06T20:01:22.635Z,20.20
2022-09-06T20:03:49.680Z,20.20
2022-09-06T20:06:16.584Z,20.40
2022-09-06T20:08:43.545Z,20.20
2022-09-06T20:11:12.592Z,20.00
2022-09-06T20:13:39.800Z,19.90
2022-09-06T20:16:07.642Z,19.90
2022-09-06T20:18:35.467Z,20.00
2022-09-06T20:21:02.658Z,19.90
2022-09-06T20:23:30.113Z,19.90
2022-09-06T20:25:58.597Z,19.80
2022-09-06T20:28:25.463Z,20.00
2022-09-06T20:30:52.353Z,19.70
2022-09-06T20:33:19.403Z,19.60
2022-09-06T20:35:56.188Z,19.50
2022-09-06T20:38:24.540Z,19.50
2022-09-06T20:40:58.565Z,19.40
2022-09-06T20:43:25.606Z,19.30
2022-09-06T20:45:52.785Z,19.40
2022-09-06T20:48:19.786Z,19.50
2022-09-06T20:50:46.823Z,19.40
2022-09-06T20:53:13.899Z,19.50
2022-09-06T20:55:40.726Z,19.40
2022-09-06T20:58:07.599Z,19.20
2022-09-06T21:00:34.506Z,19.20
2022-09-06T21:03:01.456Z,19.30
2022-09-06T21:05:28.408Z,19.40
2022-09-06T21:07:55.222Z,19.40
2022-09-06T21:10:22.025Z,19.40
2022-09-06T21:12:48.924Z,19.30
2022-09-06T21:15:15.926Z,19.20
2022-09-06T21:17:42.945Z,19.20
2022-09-06T21:20:09.905Z,19.10
2022-09-06T21:22:36.757Z,19.00
2022-09-06T21:25:03.853Z,19.00
2022-09-06T21:27:31.631Z,19.10
2022-09-06T21:29:58.521Z,19.10
2022-09-06T21:32:26.423Z,19.00
2022-09-06T21:34:53.274Z,19.10
2022-09-06T21:37:20.343Z,18.90
2022-09-06T21:39:47.442Z,19.00
2022-09-06T21:42:14.504Z,18.90
2022-09-06T21:44:41.606Z,19.00
2022-09-06T21:47:08.589Z,18.90
2022-09-06T21:49:35.435Z,19.00
2022-09-06T21:52:02.320Z,18.90
2022-09-06T21:54:29.176Z,19.00
2022-09-06T21:56:56.018Z,19.00
2022-09-06T21:59:22.892Z,18.90
2022-09-06T22:01:52.646Z,18.90
2022-09-06T22:04:19.765Z,19.00
2022-09-06T22:06:47.640Z,19.00
2022-09-06T22:09:14.504Z,19.00
2022-09-06T22:11:42.759Z,19.00
2022-09-06T22:14:10.711Z,18.90
2022-09-06T22:16:39.023Z,18.80
2022-09-06T22:19:06.614Z,18.60
2022-09-06T22:21:33.801Z,18.60
2022-09-06T22:24:04.157Z,18.70
2022-09-06T22:26:32.027Z,18.70
2022-09-06T22:29:00.434Z,18.80
2022-09-06T22:31:28.528Z,18.70
2022-09-06T22:33:55.375Z,18.80
2022-09-06T22:36:23.823Z,18.70
2022-09-06T22:38:53.140Z,18.60
2022-09-06T22:41:20.028Z,18.50
2022-09-06T22:43:47.430Z,18.40
2022-09-06T22:46:14.238Z,18.40
2022-09-06T22:48:41.159Z,18.40
2022-09-06T22:51:08.092Z,18.60
2022-09-06T22:53:35.426Z,18.50
2022-09-06T22:56:03.055Z,18.40
2022-09-06T22:58:30.034Z,18.30
2022-09-06T23:00:57.408Z,18.40
2022-09-06T23:03:24.369Z,18.40
2022-09-06T23:05:51.271Z,18.40
2022-09-06T23:08:18.192Z,18.10
2022-09-06T23:10:45.098Z,18.00
2022-09-06T23:13:12.024Z,18.20
2022-09-06T23:15:40.832Z,18.20
2022-09-06T23:18:08.463Z,18.10
2022-09-06T23:20:36.986Z,18.00
2022-09-06T23:23:07.341Z,17.90
2022-09-06T23:25:38.825Z,17.80
2022-09-06T23:28:05.762Z,17.80
2022-09-06T23:30:32.724Z,17.90
2022-09-06T23:32:59.592Z,17.90
2022-09-06T23:35:26.465Z,17.90
2022-09-06T23:37:53.862Z,18.10
2022-09-06T23:40:20.785Z,18.10
2022-09-06T23:42:47.708Z,18.10
2022-09-06T23:45:14.669Z,18.10
2022-09-06T23:47:41.612Z,18.10
2022-09-06T23:50:09.073Z,18.00
2022-09-06T23:52:35.942Z,18.10
2022-09-06T23:55:03.346Z,18.20
2022-09-06T23:57:30.229Z,18.10
2022-09-06T23:59:57.129Z,18.00
